Terminal Aerodrome Forecast
Issued by NWS

Home | Current Version | Previous Version | Graphics & Text | Print | Product List | Glossary On
Versions: 1 2 3 4 5 6 7 8 9 10 11 12 13 14 15 16 17 18 19 20 21 22 23 24 25 26 27 28 29 30 31 32 33 34 35 36 37
000
FTUS43 KGRB 311600 AAB
TAFRHI
TAF AMD
KRHI 311608Z 3116/0112 13006KT P6SM OVC008
     FM311900 15007KT P6SM BKN012
     FM312100 16004KT P6SM SCT025
     FM010100 16005KT P6SM VCSH BKN090
     FM010300 16006KT 5SM -SHRA BKN050
     FM010600 18006KT 3SM SHRA OVC030 PROB30 0106/0112 1 1/2SM TSRA
      BKN015CB=

USA.gov is the U.S. government's official web portal to all federal, state and local government web resources and services.